Terminal Aerodrome Forecast
Issued by NWS Twin Cities, MN

Home | Current Version | Previous Version | Graphics & Text | Print | Product List | Glossary On
Versions: 1 2 3 4 5 6 7 8 9 10 11 12 13 14 15 16 17 18 19 20 21 22
000
FTUS43 KMPX 291100
TAFSTC
TAF
KSTC 291138Z 2912/3012 01009KT P6SM SCT007 OVC020
      TEMPO 2912/2915 4SM -RA BR BKN007
     FM291800 05010KT P6SM BKN020 OVC035
     FM292100 07008KT P6SM SCT015
     FM300900 09004KT 6SM BR BKN008=

USA.gov is the U.S. government's official web portal to all federal, state and local government web resources and services.